sensor_id;sensor_type;location;lat;lon;timestamp;pressure;altitude;pressure_sealevel;temperature;humidity
66486;BME280;53303;47.476;8.084;2023-02-13T00:00:11;96951.47;;;19.33;33.36
66486;BME280;53303;47.476;8.084;2023-02-13T00:02:37;96949.47;;;19.34;33.31
66486;BME280;53303;47.476;8.084;2023-02-13T00:05:05;96935.34;;;19.23;33.43
66486;BME280;53303;47.476;8.084;2023-02-13T00:07:30;96934.72;;;19.28;33.46
66486;BME280;53303;47.476;8.084;2023-02-13T00:09:56;96926.63;;;19.15;33.42
66486;BME280;53303;47.476;8.084;2023-02-13T00:12:21;96962.53;;;19.33;33.54
66486;BME280;53303;47.476;8.084;2023-02-13T00:14:51;96947.19;;;19.23;33.10
66486;BME280;53303;47.476;8.084;2023-02-13T00:17:17;96961.31;;;19.34;33.37
66486;BME280;53303;47.476;8.084;2023-02-13T00:19:45;96922.16;;;19.08;33.48
66486;BME280;53303;47.476;8.084;2023-02-13T00:22:15;96961.31;;;19.34;33.62
66486;BME280;53303;47.476;8.084;2023-02-13T00:24:42;96955.50;;;19.23;33.31
66486;BME280;53303;47.476;8.084;2023-02-13T00:27:08;96960.06;;;19.35;33.35
66486;BME280;53303;47.476;8.084;2023-02-13T00:29:36;96959.31;;;19.35;33.30
66486;BME280;53303;47.476;8.084;2023-02-13T00:32:04;96949.31;;;19.28;33.08
66486;BME280;53303;47.476;8.084;2023-02-13T00:34:34;96942.59;;;19.20;33.34
66486;BME280;53303;47.476;8.084;2023-02-13T00:37:02;96950.28;;;19.25;33.39
66486;BME280;53303;47.476;8.084;2023-02-13T00:39:29;96954.56;;;19.26;33.35
66486;BME280;53303;47.476;8.084;2023-02-13T00:41:59;96964.56;;;19.33;33.31
66486;BME280;53303;47.476;8.084;2023-02-13T00:44:27;96968.06;;;19.33;33.11
66486;BME280;53303;47.476;8.084;2023-02-13T00:46:57;96951.03;;;19.26;33.30
66486;BME280;53303;47.476;8.084;2023-02-13T00:49:22;96942.91;;;19.22;33.28
66486;BME280;53303;47.476;8.084;2023-02-13T00:51:48;96958.25;;;19.32;33.13
66486;BME280;53303;47.476;8.084;2023-02-13T00:54:13;96956.41;;;19.29;33.25
66486;BME280;53303;47.476;8.084;2023-02-13T00:56:39;96978.22;;;19.36;33.22
66486;BME280;53303;47.476;8.084;2023-02-13T00:59:06;96976.22;;;19.37;33.05
66486;BME280;53303;47.476;8.084;2023-02-13T01:01:32;96966.06;;;19.34;33.14
66486;BME280;53303;47.476;8.084;2023-02-13T01:04:00;96960.41;;;19.28;33.27
66486;BME280;53303;47.476;8.084;2023-02-13T01:06:25;96962.38;;;19.37;33.16
66486;BME280;53303;47.476;8.084;2023-02-13T01:08:53;96966.06;;;19.34;33.39
66486;BME280;53303;47.476;8.084;2023-02-13T01:11:24;96958.75;;;19.21;33.28
66486;BME280;53303;47.476;8.084;2023-02-13T01:13:49;96970.84;;;19.33;33.26
66486;BME280;53303;47.476;8.084;2023-02-13T01:16:19;96943.53;;;19.17;33.30
66486;BME280;53303;47.476;8.084;2023-02-13T01:18:44;96977.94;;;19.34;33.20
66486;BME280;53303;47.476;8.084;2023-02-13T01:21:15;96973.44;;;19.37;33.19
66486;BME280;53303;47.476;8.084;2023-02-13T01:23:44;96967.44;;;19.38;33.34
66486;BME280;53303;47.476;8.084;2023-02-13T01:26:19;96965.03;;;19.22;33.22
66486;BME280;53303;47.476;8.084;2023-02-13T01:28:47;96962.25;;;19.31;33.14
66486;BME280;53303;47.476;8.084;2023-02-13T01:31:14;96973.16;;;19.35;33.22
66486;BME280;53303;47.476;8.084;2023-02-13T01:33:42;96956.88;;;19.28;33.00
66486;BME280;53303;47.476;8.084;2023-02-13T01:36:10;96968.06;;;19.33;32.85
66486;BME280;53303;47.476;8.084;2023-02-13T01:38:38;96963.00;;;19.32;33.12
66486;BME280;53303;47.476;8.084;2023-02-13T01:41:06;96967.31;;;19.33;33.41
66486;BME280;53303;47.476;8.084;2023-02-13T01:46:23;96945.38;;;19.20;33.04
66486;BME280;53303;47.476;8.084;2023-02-13T01:48:53;96977.75;;;19.38;33.22
66486;BME280;53303;47.476;8.084;2023-02-13T01:51:24;96957.78;;;19.25;33.24
66486;BME280;53303;47.476;8.084;2023-02-13T01:59:13;96978.22;;;19.36;33.24
66486;BME280;53303;47.476;8.084;2023-02-13T02:01:41;96960.25;;;19.32;33.14
66486;BME280;53303;47.476;8.084;2023-02-13T02:04:24;96955.66;;;19.19;33.10
66486;BME280;53303;47.476;8.084;2023-02-13T02:06:58;96967.16;;;19.36;33.10
66486;BME280;53303;47.476;8.084;2023-02-13T02:09:29;96953.81;;;19.26;33.17
66486;BME280;53303;47.476;8.084;2023-02-13T02:12:11;96965.16;;;19.37;33.10
66486;BME280;53303;47.476;8.084;2023-02-13T02:14:39;96958.09;;;19.36;33.12
66486;BME280;53303;47.476;8.084;2023-02-13T02:17:08;96959.63;;;19.37;33.06
66486;BME280;53303;47.476;8.084;2023-02-13T02:22:29;96958.38;;;19.38;33.10
66486;BME280;53303;47.476;8.084;2023-02-13T02:25:42;96954.25;;;19.33;33.24
66486;BME280;53303;47.476;8.084;2023-02-13T02:28:26;96960.25;;;19.23;33.29
66486;BME280;53303;47.476;8.084;2023-02-13T02:38:52;96954.53;;;19.35;33.10
66486;BME280;53303;47.476;8.084;2023-02-13T02:41:45;96951.50;;;19.24;33.08
66486;BME280;53303;47.476;8.084;2023-02-13T02:44:32;96968.38;;;19.35;33.15
66486;BME280;53303;47.476;8.084;2023-02-13T02:47:12;96948.09;;;19.29;33.24
66486;BME280;53303;47.476;8.084;2023-02-13T02:50:26;96966.56;;;19.32;33.21
66486;BME280;53303;47.476;8.084;2023-02-13T03:00:57;96945.34;;;19.29;33.19
66486;BME280;53303;47.476;8.084;2023-02-13T03:03:43;96951.78;;;19.35;33.07
66486;BME280;53303;47.476;8.084;2023-02-13T03:09:06;96963.13;;;19.37;33.21
66486;BME280;53303;47.476;8.084;2023-02-13T03:11:55;96939.38;;;19.21;33.21
66486;BME280;53303;47.476;8.084;2023-02-13T03:14:39;96960.84;;;19.36;33.12
66486;BME280;53303;47.476;8.084;2023-02-13T03:17:10;96949.94;;;19.32;33.16
66486;BME280;53303;47.476;8.084;2023-02-13T03:22:52;96958.84;;;19.36;33.22
66486;BME280;53303;47.476;8.084;2023-02-13T03:25:31;96959.78;;;19.33;33.01
66486;BME280;53303;47.476;8.084;2023-02-13T03:33:57;96960.38;;;19.37;33.08
66486;BME280;53303;47.476;8.084;2023-02-13T03:46:56;96968.06;;;19.33;33.23
66486;BME280;53303;47.476;8.084;2023-02-13T03:49:27;96966.41;;;19.36;33.10
66486;BME280;53303;47.476;8.084;2023-02-13T03:57:51;96972.38;;;19.34;33.31
66486;BME280;53303;47.476;8.084;2023-02-13T04:00:41;96967.94;;;19.28;33.00
66486;BME280;53303;47.476;8.084;2023-02-13T04:03:27;96970.53;;;19.31;33.05
66486;BME280;53303;47.476;8.084;2023-02-13T04:06:11;96979.59;;;19.32;33.06
66486;BME280;53303;47.476;8.084;2023-02-13T04:08:37;96988.03;;;19.37;33.18
66486;BME280;53303;47.476;8.084;2023-02-13T04:11:10;96996.34;;;19.37;33.18
66486;BME280;53303;47.476;8.084;2023-02-13T04:16:26;96975.66;;;19.24;32.81
66486;BME280;53303;47.476;8.084;2023-02-13T04:18:54;96988.84;;;19.29;33.02
66486;BME280;53303;47.476;8.084;2023-02-13T04:21:23;96969.66;;;19.25;33.13
66486;BME280;53303;47.476;8.084;2023-02-13T04:23:52;96990.53;;;19.35;33.03
66486;BME280;53303;47.476;8.084;2023-02-13T04:26:22;97006.22;;;19.38;33.05
66486;BME280;53303;47.476;8.084;2023-02-13T04:28:47;96984.25;;;19.26;33.02
66486;BME280;53303;47.476;8.084;2023-02-13T04:31:13;97005.16;;;19.36;33.18
66486;BME280;53303;47.476;8.084;2023-02-13T04:33:39;96976.88;;;19.23;33.03
66486;BME280;53303;47.476;8.084;2023-02-13T04:36:04;96988.38;;;19.30;33.00
66486;BME280;53303;47.476;8.084;2023-02-13T04:38:32;97000.38;;;19.36;33.10
66486;BME280;53303;47.476;8.084;2023-02-13T04:40:57;97008.50;;;19.40;33.13
66486;BME280;53303;47.476;8.084;2023-02-13T04:43:25;97003.72;;;19.40;33.04
66486;BME280;53303;47.476;8.084;2023-02-13T04:45:53;96999.28;;;19.34;33.13
66486;BME280;53303;47.476;8.084;2023-02-13T04:48:18;96999.59;;;19.36;33.17
66486;BME280;53303;47.476;8.084;2023-02-13T04:50:46;96955.84;;;19.07;33.08
66486;BME280;53303;47.476;8.084;2023-02-13T04:53:13;96983.00;;;19.27;33.00
66486;BME280;53303;47.476;8.084;2023-02-13T04:55:41;96960.75;;;19.12;33.08
66486;BME280;53303;47.476;8.084;2023-02-13T04:58:09;96994.06;;;19.27;33.02
66486;BME280;53303;47.476;8.084;2023-02-13T05:00:36;96998.06;;;19.35;33.25
66486;BME280;53303;47.476;8.084;2023-02-13T05:03:06;96998.97;;;19.41;33.10
66486;BME280;53303;47.476;8.084;2023-02-13T05:05:31;96978.25;;;19.27;33.03
66486;BME280;53303;47.476;8.084;2023-02-13T05:07:57;96976.44;;;19.15;33.08
66486;BME280;53303;47.476;8.084;2023-02-13T05:10:24;97001.72;;;19.41;33.21
66486;BME280;53303;47.476;8.084;2023-02-13T05:12:52;96999.75;;;19.42;33.59
66486;BME280;53303;47.476;8.084;2023-02-13T05:15:17;97002.97;;;19.40;33.61
66486;BME280;53303;47.476;8.084;2023-02-13T05:17:46;96994.84;;;19.36;33.86
66486;BME280;53303;47.476;8.084;2023-02-13T05:20:13;96981.03;;;19.27;33.99
66486;BME280;53303;47.476;8.084;2023-02-13T05:22:50;96987.63;;;19.30;33.88
66486;BME280;53303;47.476;8.084;2023-02-13T05:25:36;96987.44;;;19.33;34.04
66486;BME280;53303;47.476;8.084;2023-02-13T05:28:04;96985.59;;;19.30;33.91
66486;BME280;53303;47.476;8.084;2023-02-13T05:30:52;96982.06;;;19.30;33.98
66486;BME280;53303;47.476;8.084;2023-02-13T05:33:17;96972.25;;;19.19;33.93
66486;BME280;53303;47.476;8.084;2023-02-13T05:35:42;96975.03;;;19.19;33.92
66486;BME280;53303;47.476;8.084;2023-02-13T05:38:10;96956.44;;;19.11;33.83
66486;BME280;53303;47.476;8.084;2023-02-13T05:40:38;96955.84;;;19.07;33.96
66486;BME280;53303;47.476;8.084;2023-02-13T05:43:03;96977.31;;;19.21;33.90
66486;BME280;53303;47.476;8.084;2023-02-13T05:45:31;96986.56;;;19.27;33.85
66486;BME280;53303;47.476;8.084;2023-02-13T05:47:56;96969.50;;;19.10;33.94
66486;BME280;53303;47.476;8.084;2023-02-13T05:50:22;96986.56;;;19.18;33.82
66486;BME280;53303;47.476;8.084;2023-02-13T05:52:47;96998.53;;;19.33;33.96
66486;BME280;53303;47.476;8.084;2023-02-13T05:55:17;96975.81;;;19.20;33.86
66486;BME280;53303;47.476;8.084;2023-02-13T05:57:42;96995.75;;;19.33;33.89
66486;BME280;53303;47.476;8.084;2023-02-13T06:00:08;97004.34;;;19.35;33.97
66486;BME280;53303;47.476;8.084;2023-02-13T06:02:36;96995.91;;;19.30;33.80
66486;BME280;53303;47.476;8.084;2023-02-13T06:05:01;96996.69;;;19.30;33.81
66486;BME280;53303;47.476;8.084;2023-02-13T06:07:29;97002.22;;;19.30;33.84
66486;BME280;53303;47.476;8.084;2023-02-13T06:09:59;96999.16;;;19.28;33.85
66486;BME280;53303;47.476;8.084;2023-02-13T06:12:24;97003.16;;;19.27;33.89
66486;BME280;53303;47.476;8.084;2023-02-13T06:14:52;96990.25;;;19.24;33.87
66486;BME280;53303;47.476;8.084;2023-02-13T06:17:17;97009.75;;;19.30;33.92
66486;BME280;53303;47.476;8.084;2023-02-13T06:19:47;97010.22;;;19.28;33.89
66486;BME280;53303;47.476;8.084;2023-02-13T06:22:15;97011.47;;;19.27;33.76
66486;BME280;53303;47.476;8.084;2023-02-13T06:24:40;97020.19;;;19.35;33.79
66486;BME280;53303;47.476;8.084;2023-02-13T06:27:09;97014.09;;;19.21;33.94
66486;BME280;53303;47.476;8.084;2023-02-13T06:29:39;97034.81;;;19.35;33.69
66486;BME280;53303;47.476;8.084;2023-02-13T06:32:07;97018.06;;;19.20;33.84
66486;BME280;53303;47.476;8.084;2023-02-13T06:34:32;96999.19;;;19.10;33.72
66486;BME280;53303;47.476;8.084;2023-02-13T06:37:00;97025.91;;;19.31;33.65
66486;BME280;53303;47.476;8.084;2023-02-13T06:39:26;97037.56;;;19.35;33.56
66486;BME280;53303;47.476;8.084;2023-02-13T06:41:51;97009.31;;;19.22;33.57
66486;BME280;53303;47.476;8.084;2023-02-13T06:44:19;97028.66;;;19.31;33.87
66486;BME280;53303;47.476;8.084;2023-02-13T06:46:45;97030.50;;;19.34;33.69
66486;BME280;53303;47.476;8.084;2023-02-13T06:49:12;97034.50;;;19.33;33.62
66486;BME280;53303;47.476;8.084;2023-02-13T06:51:40;97027.91;;;19.31;33.58
66486;BME280;53303;47.476;8.084;2023-02-13T06:54:05;97027.75;;;19.34;33.62
66486;BME280;53303;47.476;8.084;2023-02-13T06:56:33;97018.06;;;19.20;33.62
66486;BME280;53303;47.476;8.084;2023-02-13T06:59:01;97019.44;;;19.16;33.81
66486;BME280;53303;47.476;8.084;2023-02-13T07:01:29;97043.56;;;19.34;33.48
66486;BME280;53303;47.476;8.084;2023-02-13T07:03:54;97026.22;;;19.24;33.79
66486;BME280;53303;47.476;8.084;2023-02-13T07:06:20;97040.66;;;19.28;33.57
66486;BME280;53303;47.476;8.084;2023-02-13T07:08:46;97044.06;;;19.32;33.49
66486;BME280;53303;47.476;8.084;2023-02-13T07:11:20;97053.88;;;19.33;33.45
66486;BME280;53303;47.476;8.084;2023-02-13T07:13:48;97023.59;;;19.20;33.57
66486;BME280;53303;47.476;8.084;2023-02-13T07:16:16;97037.59;;;19.26;33.51
66486;BME280;53303;47.476;8.084;2023-02-13T07:18:41;97002.41;;;18.99;33.56
66486;BME280;53303;47.476;8.084;2023-02-13T07:21:07;97019.59;;;19.12;33.47
66486;BME280;53303;47.476;8.084;2023-02-13T07:23:32;97031.44;;;19.22;33.64
66486;BME280;53303;47.476;8.084;2023-02-13T07:25:59;97040.34;;;19.26;33.43
66486;BME280;53303;47.476;8.084;2023-02-13T07:28:25;97041.28;;;19.32;33.58
66486;BME280;53303;47.476;8.084;2023-02-13T07:30:50;97036.06;;;19.25;33.40
66486;BME280;53303;47.476;8.084;2023-02-13T07:33:18;97029.44;;;19.23;33.44
66486;BME280;53303;47.476;8.084;2023-02-13T07:35:50;97033.75;;;19.24;33.30
66486;BME280;53303;47.476;8.084;2023-02-13T07:38:16;97042.81;;;19.33;33.33
66486;BME280;53303;47.476;8.084;2023-02-13T07:40:42;97047.91;;;19.26;33.56
66486;BME280;53303;47.476;8.084;2023-02-13T07:43:07;97043.28;;;19.23;33.37
66486;BME280;53303;47.476;8.084;2023-02-13T07:45:35;97046.81;;;19.23;33.29
66486;BME280;53303;47.476;8.084;2023-02-13T07:48:00;97019.63;;;19.03;33.45
66486;BME280;53303;47.476;8.084;2023-02-13T07:50:28;97054.19;;;19.26;33.35
66486;BME280;53303;47.476;8.084;2023-02-13T07:52:54;97050.34;;;19.33;33.36
66486;BME280;53303;47.476;8.084;2023-02-13T07:55:20;97037.00;;;19.22;33.61
66486;BME280;53303;47.476;8.084;2023-02-13T07:57:50;97051.25;;;19.30;33.45
66486;BME280;53303;47.476;8.084;2023-02-13T08:00:19;97055.13;;;19.32;33.30
66486;BME280;53303;47.476;8.084;2023-02-13T08:02:45;97044.97;;;19.29;33.48
66486;BME280;53303;47.476;8.084;2023-02-13T08:05:11;97036.53;;;19.24;33.33
66486;BME280;53303;47.476;8.084;2023-02-13T08:07:36;97043.44;;;19.28;33.19
66486;BME280;53303;47.476;8.084;2023-02-13T08:10:05;97038.19;;;19.21;33.19
66486;BME280;53303;47.476;8.084;2023-02-13T08:12:50;97052.97;;;19.27;33.21
66486;BME280;53303;47.476;8.084;2023-02-13T08:15:16;97052.81;;;19.31;33.19
66486;BME280;53303;47.476;8.084;2023-02-13T08:17:44;97041.13;;;19.17;33.25
66486;BME280;53303;47.476;8.084;2023-02-13T08:20:12;97056.34;;;19.31;33.44
66486;BME280;53303;47.476;8.084;2023-02-13T08:22:40;97040.06;;;19.24;33.16
66486;BME280;53303;47.476;8.084;2023-02-13T08:25:06;97050.97;;;19.28;33.21
66486;BME280;53303;47.476;8.084;2023-02-13T08:27:32;97046.34;;;19.25;33.27
66486;BME280;53303;47.476;8.084;2023-02-13T08:30:03;97054.34;;;19.32;33.18
66486;BME280;53303;47.476;8.084;2023-02-13T08:32:31;97049.25;;;19.30;33.14
66486;BME280;53303;47.476;8.084;2023-02-13T08:34:57;97043.28;;;19.23;33.03
66486;BME280;53303;47.476;8.084;2023-02-13T08:37:22;97048.97;;;19.28;33.18
66486;BME280;53303;47.476;8.084;2023-02-13T08:39:48;97043.88;;;19.27;33.26
66486;BME280;53303;47.476;8.084;2023-02-13T08:42:13;97054.34;;;19.32;33.13
66486;BME280;53303;47.476;8.084;2023-02-13T08:44:41;97042.97;;;19.20;33.03
66486;BME280;53303;47.476;8.084;2023-02-13T08:47:07;97040.81;;;19.25;32.81
66486;BME280;53303;47.476;8.084;2023-02-13T08:49:40;97035.75;;;19.23;33.17
66486;BME280;53303;47.476;8.084;2023-02-13T08:52:07;97018.09;;;19.11;33.14
66486;BME280;53303;47.476;8.084;2023-02-13T08:54:33;97052.03;;;19.30;33.17
66486;BME280;53303;47.476;8.084;2023-02-13T08:57:01;97035.44;;;19.21;33.03
66486;BME280;53303;47.476;8.084;2023-02-13T08:59:26;97024.69;;;19.14;33.05
66486;BME280;53303;47.476;8.084;2023-02-13T09:01:51;97047.44;;;19.27;33.19
66486;BME280;53303;47.476;8.084;2023-02-13T09:04:24;97022.06;;;19.10;33.10
66486;BME280;53303;47.476;8.084;2023-02-13T09:06:49;97042.81;;;19.24;33.03
66486;BME280;53303;47.476;8.084;2023-02-13T09:09:14;97039.44;;;19.20;33.08
66486;BME280;53303;47.476;8.084;2023-02-13T09:11:42;97046.34;;;19.25;33.13
66486;BME280;53303;47.476;8.084;2023-02-13T09:14:07;97054.50;;;19.28;32.94
66486;BME280;53303;47.476;8.084;2023-02-13T09:16:33;97047.44;;;19.27;33.02
66486;BME280;53303;47.476;8.084;2023-02-13T09:18:58;97032.84;;;19.17;32.99
66486;BME280;53303;47.476;8.084;2023-02-13T09:21:28;97054.50;;;19.28;33.08
66486;BME280;53303;47.476;8.084;2023-02-13T09:23:57;97055.44;;;19.25;33.21
66486;BME280;53303;47.476;8.084;2023-02-13T09:26:23;97039.44;;;19.20;32.91
66486;BME280;53303;47.476;8.084;2023-02-13T09:28:48;97042.97;;;19.20;32.96
66486;BME280;53303;47.476;8.084;2023-02-13T09:31:18;97062.63;;;19.32;33.10
66486;BME280;53303;47.476;8.084;2023-02-13T09:33:45;97068.19;;;19.32;32.92
66486;BME280;53303;47.476;8.084;2023-02-13T09:36:16;97063.59;;;19.29;33.13
66486;BME280;53303;47.476;8.084;2023-02-13T09:38:44;97061.56;;;19.29;32.98
66486;BME280;53303;47.476;8.084;2023-02-13T09:41:19;97070.94;;;19.32;32.92
66486;BME280;53303;47.476;8.084;2023-02-13T09:43:48;97070.94;;;19.32;33.02
66486;BME280;53303;47.476;8.084;2023-02-13T09:46:22;97073.72;;;19.32;33.02
66486;BME280;53303;47.476;8.084;2023-02-13T09:48:56;97073.72;;;19.32;33.11
66486;BME280;53303;47.476;8.084;2023-02-13T09:51:23;97066.03;;;19.17;33.08
66486;BME280;53303;47.476;8.084;2023-02-13T09:53:58;97052.66;;;19.16;32.99
66486;BME280;53303;47.476;8.084;2023-02-13T10:01:43;97050.50;;;19.11;33.29
66486;BME280;53303;47.476;8.084;2023-02-13T10:04:24;97073.72;;;19.32;32.96
66486;BME280;53303;47.476;8.084;2023-02-13T10:07:24;97076.34;;;19.26;33.14
66486;BME280;53303;47.476;8.084;2023-02-13T10:12:55;97080.50;;;19.31;33.08
66486;BME280;53303;47.476;8.084;2023-02-13T10:15:42;97073.56;;;19.17;33.21
66486;BME280;53303;47.476;8.084;2023-02-13T10:18:14;97066.81;;;19.27;33.03
66486;BME280;53303;47.476;8.084;2023-02-13T10:20:52;97074.66;;;19.29;32.96
66486;BME280;53303;47.476;8.084;2023-02-13T10:23:26;97072.19;;;19.31;32.87
66486;BME280;53303;47.476;8.084;2023-02-13T10:30:55;97061.72;;;19.35;32.96
66486;BME280;53303;47.476;8.084;2023-02-13T10:33:29;97058.97;;;19.26;32.83
66486;BME280;53303;47.476;8.084;2023-02-13T10:38:30;97036.69;;;19.20;32.87
66486;BME280;53303;47.476;8.084;2023-02-13T10:43:56;97055.88;;;19.33;33.04
66486;BME280;53303;47.476;8.084;2023-02-13T10:54:21;97038.66;;;19.38;32.86
66486;BME280;53303;47.476;8.084;2023-02-13T10:57:07;97039.88;;;19.37;32.78
66486;BME280;53303;47.476;8.084;2023-02-13T11:04:52;97022.22;;;19.34;32.98
66486;BME280;53303;47.476;8.084;2023-02-13T11:07:20;97011.75;;;19.29;32.84
66486;BME280;53303;47.476;8.084;2023-02-13T11:09:54;97025.75;;;19.35;32.97
66486;BME280;53303;47.476;8.084;2023-02-13T11:12:29;97022.97;;;19.35;32.72
66486;BME280;53303;47.476;8.084;2023-02-13T11:15:00;97023.44;;;19.33;32.85
66486;BME280;53303;47.476;8.084;2023-02-13T11:17:34;97020.19;;;19.35;32.78
66486;BME280;53303;47.476;8.084;2023-02-13T11:20:34;97028.81;;;19.37;32.86
66486;BME280;53303;47.476;8.084;2023-02-13T11:28:35;97010.50;;;19.30;32.92
66486;BME280;53303;47.476;8.084;2023-02-13T11:31:15;97027.72;;;19.44;32.81
66486;BME280;53303;47.476;8.084;2023-02-13T11:33:43;97016.81;;;19.40;33.04
66486;BME280;53303;47.476;8.084;2023-02-13T11:36:13;97021.09;;;19.41;32.92
66486;BME280;53303;47.476;8.084;2023-02-13T11:38:42;97015.09;;;19.43;32.88
66486;BME280;53303;47.476;8.084;2023-02-13T11:41:13;97019.41;;;19.44;32.69
66486;BME280;53303;47.476;8.084;2023-02-13T11:43:48;97003.28;;;19.33;32.78
66486;BME280;53303;47.476;8.084;2023-02-13T11:46:24;97015.72;;;19.47;32.72
66486;BME280;53303;47.476;8.084;2023-02-13T11:48:57;97021.56;;;19.49;32.87
66486;BME280;53303;47.476;8.084;2023-02-13T11:51:38;97025.56;;;19.48;32.79
66486;BME280;53303;47.476;8.084;2023-02-13T11:54:05;97005.44;;;19.38;32.69
66486;BME280;53303;47.476;8.084;2023-02-13T11:56:51;97004.06;;;19.33;32.75
66486;BME280;53303;47.476;8.084;2023-02-13T11:59:26;97019.09;;;19.51;32.74
66486;BME280;53303;47.476;8.084;2023-02-13T12:04:37;97007.25;;;19.50;32.70
66486;BME280;53303;47.476;8.084;2023-02-13T12:07:20;96988.22;;;19.34;32.81
66486;BME280;53303;47.476;8.084;2023-02-13T12:09:58;96977.75;;;19.38;32.54
66486;BME280;53303;47.476;8.084;2023-02-13T12:12:41;96985.56;;;19.49;32.72
66486;BME280;53303;47.476;8.084;2023-02-13T12:28:42;96988.44;;;19.64;32.75
66486;BME280;53303;47.476;8.084;2023-02-13T12:48:50;96975.81;;;19.72;32.59
66486;BME280;53303;47.476;8.084;2023-02-13T13:16:02;96960.41;;;19.80;32.47
66486;BME280;53303;47.476;8.084;2023-02-13T13:21:34;96946.09;;;19.82;32.53
66486;BME280;53303;47.476;8.084;2023-02-13T13:26:53;96955.25;;;19.97;32.53
66486;BME280;53303;47.476;8.084;2023-02-13T13:31:59;96935.31;;;19.84;32.46
66486;BME280;53303;47.476;8.084;2023-02-13T13:34:26;96947.69;;;19.97;32.39
66486;BME280;53303;47.476;8.084;2023-02-13T13:36:59;96948.09;;;20.05;32.30
66486;BME280;53303;47.476;8.084;2023-02-13T13:42:38;96955.50;;;20.08;32.33
66486;BME280;53303;47.476;8.084;2023-02-13T13:45:26;96949.78;;;20.12;32.46
66486;BME280;53303;47.476;8.084;2023-02-13T13:50:39;96927.38;;;20.01;32.27
66486;BME280;53303;47.476;8.084;2023-02-13T13:53:08;96940.34;;;20.19;32.27
66486;BME280;53303;47.476;8.084;2023-02-13T14:00:47;96937.09;;;20.20;32.22
66486;BME280;53303;47.476;8.084;2023-02-13T14:03:36;96925.72;;;20.18;32.00
66486;BME280;53303;47.476;8.084;2023-02-13T14:06:08;96917.78;;;20.11;32.36
66486;BME280;53303;47.476;8.084;2023-02-13T14:11:24;96926.41;;;20.28;32.12
66486;BME280;53303;47.476;8.084;2023-02-13T14:13:52;96941.75;;;20.38;32.12
66486;BME280;53303;47.476;8.084;2023-02-13T14:16:42;96919.53;;;20.23;32.02
66486;BME280;53303;47.476;8.084;2023-02-13T14:19:39;96938.41;;;20.34;32.00
66486;BME280;53303;47.476;8.084;2023-02-13T14:22:33;96931.78;;;20.31;32.21
66486;BME280;53303;47.476;8.084;2023-02-13T14:25:18;96942.50;;;20.39;32.17
66486;BME280;53303;47.476;8.084;2023-02-13T14:27:55;96920.69;;;20.31;32.05
66486;BME280;53303;47.476;8.084;2023-02-13T14:33:23;96939.56;;;20.42;32.11
66486;BME280;53303;47.476;8.084;2023-02-13T14:35:59;96932.03;;;20.43;32.04
66486;BME280;53303;47.476;8.084;2023-02-13T14:38:28;96931.84;;;20.46;32.35
66486;BME280;53303;47.476;8.084;2023-02-13T14:40:54;96944.28;;;20.51;32.09
66486;BME280;53303;47.476;8.084;2023-02-13T14:43:20;96937.50;;;20.52;32.09
66486;BME280;53303;47.476;8.084;2023-02-13T14:49:14;96927.00;;;20.32;32.28
66486;BME280;53303;47.476;8.084;2023-02-13T14:52:29;96929.41;;;20.39;32.31
66486;BME280;53303;47.476;8.084;2023-02-13T14:55:48;96940.94;;;20.47;32.31
66486;BME280;53303;47.476;8.084;2023-02-13T14:57:51;96946.09;;;20.54;32.15
66486;BME280;53303;47.476;8.084;2023-02-13T15:00:27;96928.91;;;20.50;32.55
66486;BME280;53303;47.476;8.084;2023-02-13T15:03:04;96925.03;;;20.47;32.48
66486;BME280;53303;47.476;8.084;2023-02-13T15:05:37;96929.94;;;20.52;32.46
66486;BME280;53303;47.476;8.084;2023-02-13T15:08:17;96926.31;;;20.46;32.36
66486;BME280;53303;47.476;8.084;2023-02-13T15:15:50;96918.75;;;20.47;32.68
66486;BME280;53303;47.476;8.084;2023-02-13T15:18:23;96923.75;;;20.58;32.67
66486;BME280;53303;47.476;8.084;2023-02-13T15:20:52;96932.06;;;20.58;32.45
66486;BME280;53303;47.476;8.084;2023-02-13T15:23:26;96920.69;;;20.56;32.76
66486;BME280;53303;47.476;8.084;2023-02-13T15:25:58;96920.88;;;20.52;32.62
66486;BME280;53303;47.476;8.084;2023-02-13T15:28:27;96916.84;;;20.53;32.87
66486;BME280;53303;47.476;8.084;2023-02-13T15:31:23;96924.22;;;20.56;32.73
66486;BME280;53303;47.476;8.084;2023-02-13T15:33:50;96923.16;;;20.53;32.70
66486;BME280;53303;47.476;8.084;2023-02-13T15:36:22;96925.63;;;20.51;33.02
66486;BME280;53303;47.476;8.084;2023-02-13T15:39:04;96905.72;;;20.38;32.87
66486;BME280;53303;47.476;8.084;2023-02-13T15:41:36;96907.22;;;20.39;33.04
66486;BME280;53303;47.476;8.084;2023-02-13T15:44:02;96916.81;;;20.38;33.32
66486;BME280;53303;47.476;8.084;2023-02-13T15:48:59;96920.06;;;20.37;33.15
66486;BME280;53303;47.476;8.084;2023-02-13T15:51:29;96901.84;;;20.21;33.13
66486;BME280;53303;47.476;8.084;2023-02-13T15:54:20;96890.81;;;20.11;33.11
66486;BME280;53303;47.476;8.084;2023-02-13T15:56:46;96915.97;;;20.23;33.33
66486;BME280;53303;47.476;8.084;2023-02-13T15:59:13;96909.28;;;20.14;33.29
66486;BME280;53303;47.476;8.084;2023-02-13T16:01:42;96928.91;;;20.26;33.25
66486;BME280;53303;47.476;8.084;2023-02-13T16:04:16;96930.13;;;20.25;33.34
66486;BME280;53303;47.476;8.084;2023-02-13T16:06:45;96916.34;;;20.15;33.29
66486;BME280;53303;47.476;8.084;2023-02-13T16:09:32;96904.56;;;20.06;33.27
66486;BME280;53303;47.476;8.084;2023-02-13T16:12:04;96911.91;;;20.09;33.32
66486;BME280;53303;47.476;8.084;2023-02-13T16:14:32;96929.44;;;20.15;33.49
66486;BME280;53303;47.476;8.084;2023-02-13T16:17:11;96914.84;;;20.05;33.39
66486;BME280;53303;47.476;8.084;2023-02-13T16:20:05;96922.72;;;20.07;33.57
66486;BME280;53303;47.476;8.084;2023-02-13T16:27:44;96917.09;;;19.92;33.39
66486;BME280;53303;47.476;8.084;2023-02-13T16:32:47;96918.94;;;19.95;33.61
66486;BME280;53303;47.476;8.084;2023-02-13T16:35:29;96925.53;;;19.97;33.66
66486;BME280;53303;47.476;8.084;2023-02-13T16:37:59;96927.84;;;19.99;33.69